Time;durP1;ratioP1;P1;durP2;ratioP2;P2;SDS_P1;SDS_P2;PMS_P1;PMS_P2;Temp;Humidity;BMP_temperature;BMP_pressure;BME280_temperature;BME280_humidity;BME280_pressure;Samples;Min_cycle;Max_cycle;Signal;HPM_P1;HPM_P2
2023/05/30 00:00:43;;;;;;;3.28;1.63;;;;;;;;;;4949726;28;20394;-86
2023/05/30 00:03:11;;;;;;;1.75;1.65;;;;;;;;;;4952221;28;20043;-87
2023/05/30 00:05:39;;;;;;;1.67;1.58;;;;;;;;;;4963329;28;20049;-87
2023/05/30 00:08:06;;;;;;;1.60;1.50;;;;;;;;;;4950608;28;20043;-86
2023/05/30 00:10:34;;;;;;;2.05;1.95;;;;;;;;;;4953776;28;20660;-88
2023/05/30 00:13:02;;;;;;;2.30;1.98;;;;;;;;;;4950848;28;20054;-86
2023/05/30 00:15:31;;;;;;;2.53;1.95;;;;;;;;;;4954609;28;20497;-87
2023/05/30 00:18:00;;;;;;;2.10;2.00;;;;;;;;;;4955053;28;20481;-87
2023/05/30 00:20:29;;;;;;;3.78;1.60;;;;;;;;;;4948788;28;20043;-86
2023/05/30 00:23:00;;;;;;;1.83;1.60;;;;;;;;;;4950498;28;20047;-87
2023/05/30 00:25:28;;;;;;;1.77;1.67;;;;;;;;;;4950705;28;20049;-88
2023/05/30 00:27:55;;;;;;;1.83;1.73;;;;;;;;;;4954343;28;20051;-87
2023/05/30 00:30:23;;;;;;;2.03;1.75;;;;;;;;;;4953251;28;20421;-86
2023/05/30 00:32:50;;;;;;;2.08;1.98;;;;;;;;;;4955587;28;20509;-87
2023/05/30 00:35:18;;;;;;;1.83;1.63;;;;;;;;;;4949217;28;20506;-86
2023/05/30 00:37:45;;;;;;;1.70;1.60;;;;;;;;;;4947558;28;20067;-86
2023/05/30 00:40:13;;;;;;;2.08;1.98;;;;;;;;;;4946960;28;20047;-87
2023/05/30 00:42:40;;;;;;;1.65;1.55;;;;;;;;;;4948795;28;20069;-88
2023/05/30 00:45:08;;;;;;;2.90;1.60;;;;;;;;;;4929584;28;20070;-86
2023/05/30 00:47:36;;;;;;;1.60;1.50;;;;;;;;;;4949677;28;20074;-86
2023/05/30 00:50:04;;;;;;;1.80;1.70;;;;;;;;;;4932378;29;20051;-87
2023/05/30 00:52:31;;;;;;;1.60;1.50;;;;;;;;;;4951613;28;20047;-86
2023/05/30 00:55:02;;;;;;;1.70;1.60;;;;;;;;;;4948975;28;20047;-87
2023/05/30 00:57:33;;;;;;;4.28;1.65;;;;;;;;;;4947702;28;20051;-88
2023/05/30 01:00:04;;;;;;;2.45;1.98;;;;;;;;;;4950142;28;20122;-86
2023/05/30 01:02:35;;;;;;;1.80;1.70;;;;;;;;;;4949945;28;20047;-87
2023/05/30 01:05:03;;;;;;;1.80;1.70;;;;;;;;;;4933154;29;20453;-87
2023/05/30 01:07:31;;;;;;;1.60;1.50;;;;;;;;;;4948845;28;20071;-87
2023/05/30 01:09:59;;;;;;;1.40;1.40;;;;;;;;;;4935121;28;20052;-87
2023/05/30 01:12:27;;;;;;;1.33;1.23;;;;;;;;;;4949701;28;20055;-86
2023/05/30 01:15:12;;;;;;;1.83;1.73;;;;;;;;;;4949231;28;20055;-86
2023/05/30 01:17:49;;;;;;;1.45;1.35;;;;;;;;;;4950955;28;20047;-87
2023/05/30 01:20:20;;;;;;;1.60;1.48;;;;;;;;;;4929565;28;20774;-86
2023/05/30 01:23:06;;;;;;;1.77;1.65;;;;;;;;;;4948778;28;20500;-87
2023/05/30 01:25:53;;;;;;;1.52;1.42;;;;;;;;;;4932652;29;20058;-88
2023/05/30 01:28:22;;;;;;;2.10;2.00;;;;;;;;;;4953337;28;20098;-87
2023/05/30 01:30:52;;;;;;;1.50;1.40;;;;;;;;;;4951523;28;20052;-87
2023/05/30 01:33:20;;;;;;;2.03;1.60;;;;;;;;;;4929266;28;20458;-87
2023/05/30 01:35:47;;;;;;;1.60;1.50;;;;;;;;;;4947913;28;20055;-86
2023/05/30 01:38:15;;;;;;;1.70;1.60;;;;;;;;;;4948835;28;20664;-87
2023/05/30 01:40:44;;;;;;;1.27;1.27;;;;;;;;;;4950105;28;20078;-86
2023/05/30 01:43:19;;;;;;;2.42;1.50;;;;;;;;;;4948609;28;20040;-87
2023/05/30 01:45:53;;;;;;;2.75;1.35;;;;;;;;;;4947292;28;20039;-87
2023/05/30 01:48:30;;;;;;;1.45;1.45;;;;;;;;;;4947468;28;20420;-87
2023/05/30 01:50:59;;;;;;;1.60;1.50;;;;;;;;;;4953472;28;20086;-87
2023/05/30 01:53:31;;;;;;;1.33;1.23;;;;;;;;;;4933285;28;20105;-87
2023/05/30 01:56:00;;;;;;;1.75;1.50;;;;;;;;;;4947888;28;20138;-88
2023/05/30 01:58:30;;;;;;;1.98;1.88;;;;;;;;;;4933544;28;20510;-87
2023/05/30 02:00:58;;;;;;;1.75;1.65;;;;;;;;;;4949508;28;20490;-86
2023/05/30 02:03:25;;;;;;;1.80;1.70;;;;;;;;;;4948727;28;20051;-87
2023/05/30 02:05:53;;;;;;;1.30;1.30;;;;;;;;;;4949041;28;20086;-88
2023/05/30 02:08:21;;;;;;;1.50;1.40;;;;;;;;;;4947993;28;20054;-87
2023/05/30 02:10:48;;;;;;;1.73;1.55;;;;;;;;;;4947571;28;20047;-85
2023/05/30 02:13:19;;;;;;;1.80;1.70;;;;;;;;;;4944394;28;20075;-86
2023/05/30 02:15:46;;;;;;;1.40;1.40;;;;;;;;;;4953401;28;20050;-87
2023/05/30 02:18:14;;;;;;;1.88;1.77;;;;;;;;;;4949183;28;20357;-88
2023/05/30 02:20:41;;;;;;;1.63;1.52;;;;;;;;;;4930317;28;20067;-87
2023/05/30 02:23:09;;;;;;;1.27;1.17;;;;;;;;;;4949212;28;20043;-87
2023/05/30 02:25:37;;;;;;;1.95;1.85;;;;;;;;;;4947156;28;20589;-87
2023/05/30 02:28:06;;;;;;;1.88;1.45;;;;;;;;;;4947675;28;20465;-88
2023/05/30 02:30:34;;;;;;;1.58;1.48;;;;;;;;;;4948011;28;20054;-87
2023/05/30 02:33:01;;;;;;;1.75;1.65;;;;;;;;;;4947667;28;20059;-87
2023/05/30 02:35:29;;;;;;;1.40;1.40;;;;;;;;;;4947218;28;20043;-87
2023/05/30 02:37:56;;;;;;;1.73;1.52;;;;;;;;;;4947186;28;20073;-87
2023/05/30 02:40:24;;;;;;;1.63;1.55;;;;;;;;;;4929219;28;20662;-87
2023/05/30 02:42:52;;;;;;;1.67;1.58;;;;;;;;;;4931797;28;20134;-86
2023/05/30 02:45:20;;;;;;;1.88;1.77;;;;;;;;;;4945584;28;20051;-87
2023/05/30 02:47:47;;;;;;;1.65;1.55;;;;;;;;;;4947187;28;20055;-87
2023/05/30 02:50:16;;;;;;;1.77;1.67;;;;;;;;;;4947659;28;20043;-87
2023/05/30 02:52:44;;;;;;;2.10;1.90;;;;;;;;;;4947472;28;20059;-87
2023/05/30 02:55:13;;;;;;;1.67;1.58;;;;;;;;;;4946061;28;20070;-87
2023/05/30 02:57:59;;;;;;;2.25;1.58;;;;;;;;;;4949722;28;20047;-87
2023/05/30 03:00:38;;;;;;;1.63;1.40;;;;;;;;;;4931103;28;20105;-88
2023/05/30 03:03:14;;;;;;;1.67;1.40;;;;;;;;;;4931646;29;20066;-87
2023/05/30 03:05:49;;;;;;;3.25;1.80;;;;;;;;;;4931396;28;20059;-87
2023/05/30 03:08:37;;;;;;;1.52;1.42;;;;;;;;;;4946724;28;20059;-87
2023/05/30 03:11:05;;;;;;;1.25;1.25;;;;;;;;;;4948265;28;20046;-87
2023/05/30 03:13:32;;;;;;;1.30;1.30;;;;;;;;;;4934153;28;20059;-87
2023/05/30 03:16:01;;;;;;;1.80;1.70;;;;;;;;;;4949120;28;20633;-87
2023/05/30 03:18:29;;;;;;;1.75;1.65;;;;;;;;;;4951071;28;20126;-87
2023/05/30 03:20:57;;;;;;;1.80;1.70;;;;;;;;;;4933957;28;20461;-87
2023/05/30 03:23:24;;;;;;;1.67;1.58;;;;;;;;;;4946917;28;20036;-87
2023/05/30 03:25:52;;;;;;;1.77;1.67;;;;;;;;;;4935922;28;20059;-87
2023/05/30 03:28:19;;;;;;;1.95;1.85;;;;;;;;;;4947610;28;20052;-86
2023/05/30 03:31:07;;;;;;;1.40;1.35;;;;;;;;;;4954740;28;20055;-87
2023/05/30 03:33:35;;;;;;;1.60;1.50;;;;;;;;;;4949250;28;20160;-88
2023/05/30 03:36:03;;;;;;;2.45;1.60;;;;;;;;;;4950396;28;20760;-86
2023/05/30 03:38:30;;;;;;;2.00;1.80;;;;;;;;;;4950018;28;20047;-86
2023/05/30 03:40:58;;;;;;;1.70;1.60;;;;;;;;;;4948563;28;20106;-87
2023/05/30 03:43:25;;;;;;;2.00;1.80;;;;;;;;;;4933747;28;20043;-86
2023/05/30 03:45:53;;;;;;;1.67;1.58;;;;;;;;;;4949359;28;20055;-86
2023/05/30 03:48:20;;;;;;;2.10;2.00;;;;;;;;;;4952409;28;20047;-86
2023/05/30 03:50:48;;;;;;;1.70;1.60;;;;;;;;;;4951520;28;20441;-86
2023/05/30 03:53:16;;;;;;;2.10;1.90;;;;;;;;;;4950851;28;20500;-87
2023/05/30 03:55:44;;;;;;;1.77;1.67;;;;;;;;;;4948895;28;20058;-85
2023/05/30 03:58:12;;;;;;;1.80;1.70;;;;;;;;;;4948723;28;20050;-87
2023/05/30 04:00:42;;;;;;;2.13;2.03;;;;;;;;;;4947568;28;20050;-88
2023/05/30 04:03:19;;;;;;;2.10;2.00;;;;;;;;;;4948632;28;20061;-88
2023/05/30 04:05:53;;;;;;;2.28;2.05;;;;;;;;;;4936875;28;20050;-89
2023/05/30 04:08:23;;;;;;;1.80;1.70;;;;;;;;;;4950789;28;20074;-88
2023/05/30 04:10:51;;;;;;;3.38;1.98;;;;;;;;;;4948842;28;20425;-87
2023/05/30 04:13:21;;;;;;;2.13;2.00;;;;;;;;;;4949386;28;20399;-88
2023/05/30 04:15:50;;;;;;;3.20;1.90;;;;;;;;;;4945888;28;20071;-87
2023/05/30 04:18:17;;;;;;;2.33;2.10;;;;;;;;;;4949455;28;23103;-86
2023/05/30 04:20:44;;;;;;;1.77;1.67;;;;;;;;;;4948766;28;20050;-87
2023/05/30 04:23:12;;;;;;;2.10;1.98;;;;;;;;;;4948342;28;20160;-87
2023/05/30 04:25:44;;;;;;;2.33;2.20;;;;;;;;;;4948623;28;20042;-87
2023/05/30 04:28:12;;;;;;;1.80;1.70;;;;;;;;;;4950580;28;20134;-87
2023/05/30 04:30:40;;;;;;;2.05;1.92;;;;;;;;;;4953373;28;20117;-88
2023/05/30 04:33:09;;;;;;;2.15;2.05;;;;;;;;;;4957490;28;20066;-87
2023/05/30 04:35:39;;;;;;;2.42;2.22;;;;;;;;;;4954486;28;20063;-87
2023/05/30 04:38:06;;;;;;;2.00;1.90;;;;;;;;;;4949652;28;20046;-88
2023/05/30 04:40:34;;;;;;;2.20;2.10;;;;;;;;;;4951917;28;20615;-86
2023/05/30 04:43:03;;;;;;;2.10;2.00;;;;;;;;;;4944756;28;20126;-86
2023/05/30 04:45:36;;;;;;;2.40;2.30;;;;;;;;;;4965133;28;20127;-86
2023/05/30 04:48:04;;;;;;;2.70;2.50;;;;;;;;;;4957491;28;20047;-86
2023/05/30 04:50:32;;;;;;;2.65;2.45;;;;;;;;;;4946491;28;20047;-86
2023/05/30 04:53:00;;;;;;;2.30;2.10;;;;;;;;;;4961660;28;20050;-86
2023/05/30 04:55:28;;;;;;;1.95;1.80;;;;;;;;;;4962639;28;20533;-86
2023/05/30 04:57:56;;;;;;;2.10;1.90;;;;;;;;;;4950694;28;20058;-85
2023/05/30 05:00:24;;;;;;;2.40;2.20;;;;;;;;;;4953855;28;20138;-86
2023/05/30 05:02:51;;;;;;;2.10;2.00;;;;;;;;;;4951546;28;20115;-84
2023/05/30 05:05:19;;;;;;;3.03;1.90;;;;;;;;;;4950714;28;20102;-86
2023/05/30 05:07:46;;;;;;;1.92;1.83;;;;;;;;;;4950701;28;20186;-87
2023/05/30 05:10:14;;;;;;;2.10;1.90;;;;;;;;;;4950733;28;20062;-85
2023/05/30 05:12:41;;;;;;;2.33;2.22;;;;;;;;;;4950256;28;20054;-85
2023/05/30 05:15:08;;;;;;;2.50;2.30;;;;;;;;;;4951588;28;20062;-86
2023/05/30 05:17:36;;;;;;;2.33;2.13;;;;;;;;;;4958122;28;20504;-85
2023/05/30 05:20:07;;;;;;;2.55;2.00;;;;;;;;;;4948543;28;20074;-85
2023/05/30 05:22:39;;;;;;;1.90;1.80;;;;;;;;;;4949061;28;20051;-85
2023/05/30 05:25:07;;;;;;;2.15;1.98;;;;;;;;;;4952941;28;20051;-84
2023/05/30 05:27:34;;;;;;;3.47;2.22;;;;;;;;;;4959303;28;20043;-87
2023/05/30 05:30:02;;;;;;;2.20;2.00;;;;;;;;;;4951595;28;20051;-88
2023/05/30 05:32:36;;;;;;;2.50;2.30;;;;;;;;;;4942027;28;20063;-85
2023/05/30 05:35:04;;;;;;;2.20;2.00;;;;;;;;;;4951464;28;20079;-87
2023/05/30 05:37:57;;;;;;;2.40;2.20;;;;;;;;;;4953834;28;20030;-88
2023/05/30 05:40:24;;;;;;;2.17;2.05;;;;;;;;;;4944913;28;20046;-87
2023/05/30 05:42:52;;;;;;;2.70;2.40;;;;;;;;;;4953144;28;20039;-88
2023/05/30 05:45:19;;;;;;;2.30;2.20;;;;;;;;;;4946394;28;20131;-88
2023/05/30 05:47:47;;;;;;;2.33;2.22;;;;;;;;;;4950553;28;20047;-87
2023/05/30 05:50:14;;;;;;;2.05;1.92;;;;;;;;;;4958455;28;20039;-88
2023/05/30 05:52:42;;;;;;;2.03;1.90;;;;;;;;;;4945704;28;20058;-88
2023/05/30 05:55:09;;;;;;;1.90;1.80;;;;;;;;;;4951816;28;20153;-86
2023/05/30 05:57:37;;;;;;;2.05;1.95;;;;;;;;;;4950204;28;20055;-87
2023/05/30 06:00:05;;;;;;;1.98;1.88;;;;;;;;;;4936549;28;20078;-86
2023/05/30 06:02:38;;;;;;;1.95;1.85;;;;;;;;;;4942867;28;20098;-86
2023/05/30 06:05:06;;;;;;;2.13;2.00;;;;;;;;;;4941295;28;20042;-86
2023/05/30 06:07:34;;;;;;;2.13;1.83;;;;;;;;;;4940155;28;20054;-86
2023/05/30 06:10:02;;;;;;;1.70;1.60;;;;;;;;;;4937087;28;20035;-86
2023/05/30 06:12:29;;;;;;;1.60;1.50;;;;;;;;;;4944369;28;20047;-86
2023/05/30 06:14:57;;;;;;;1.85;1.60;;;;;;;;;;4945086;28;20047;-87
2023/05/30 06:17:24;;;;;;;1.73;1.63;;;;;;;;;;4948689;28;20047;-87
2023/05/30 06:19:54;;;;;;;1.90;1.80;;;;;;;;;;4959531;28;20050;-87
2023/05/30 06:22:26;;;;;;;1.60;1.50;;;;;;;;;;4971006;28;20043;-87
2023/05/30 06:24:53;;;;;;;1.42;1.42;;;;;;;;;;4955340;28;20575;-86
2023/05/30 06:27:21;;;;;;;2.10;2.00;;;;;;;;;;4939643;28;20098;-86
2023/05/30 06:29:48;;;;;;;2.40;1.73;;;;;;;;;;4936380;28;20075;-86
2023/05/30 06:32:16;;;;;;;1.80;1.70;;;;;;;;;;4945077;28;20042;-87
2023/05/30 06:34:45;;;;;;;2.03;1.90;;;;;;;;;;4962010;28;20062;-87
2023/05/30 06:37:13;;;;;;;2.08;1.95;;;;;;;;;;4954476;28;20047;-88
2023/05/30 06:39:41;;;;;;;1.63;1.52;;;;;;;;;;4963500;28;20050;-86
2023/05/30 06:42:09;;;;;;;1.58;1.48;;;;;;;;;;4946102;28;20044;-87
2023/05/30 06:44:43;;;;;;;1.50;1.40;;;;;;;;;;4955116;28;20711;-88
2023/05/30 06:47:10;;;;;;;1.50;1.40;;;;;;;;;;4954928;28;20051;-87
2023/05/30 06:49:38;;;;;;;3.22;1.83;;;;;;;;;;4953710;28;20506;-87
2023/05/30 06:52:05;;;;;;;1.60;1.50;;;;;;;;;;4955866;28;20054;-88
2023/05/30 06:54:34;;;;;;;1.83;1.73;;;;;;;;;;4969363;28;20050;-87
2023/05/30 06:57:04;;;;;;;1.90;1.80;;;;;;;;;;4960131;28;20043;-87
2023/05/30 06:59:33;;;;;;;2.15;1.75;;;;;;;;;;4953161;28;20039;-87
2023/05/30 07:02:02;;;;;;;2.42;1.92;;;;;;;;;;4955255;28;20150;-87
2023/05/30 07:04:29;;;;;;;1.75;1.65;;;;;;;;;;4953525;28;20047;-86
2023/05/30 07:06:57;;;;;;;1.70;1.60;;;;;;;;;;4951566;28;20043;-87
2023/05/30 07:09:26;;;;;;;2.15;1.80;;;;;;;;;;4951649;28;20078;-86
2023/05/30 07:11:53;;;;;;;1.50;1.50;;;;;;;;;;4952815;28;20479;-86
2023/05/30 07:14:21;;;;;;;1.90;1.80;;;;;;;;;;4956356;28;20529;-87
2023/05/30 07:16:48;;;;;;;1.92;1.83;;;;;;;;;;4953783;28;20047;-87
2023/05/30 07:19:19;;;;;;;1.70;1.60;;;;;;;;;;4957963;28;20049;-87
2023/05/30 07:21:47;;;;;;;1.58;1.48;;;;;;;;;;4953282;28;20047;-88
2023/05/30 07:24:14;;;;;;;1.60;1.40;;;;;;;;;;4945072;28;20843;-86
2023/05/30 07:26:42;;;;;;;1.55;1.55;;;;;;;;;;4948967;28;20150;-86
2023/05/30 07:29:10;;;;;;;1.60;1.50;;;;;;;;;;4949513;28;20114;-87
2023/05/30 07:31:37;;;;;;;1.60;1.50;;;;;;;;;;4950633;28;20410;-86
2023/05/30 07:34:05;;;;;;;1.40;1.40;;;;;;;;;;4952152;28;20093;-86
2023/05/30 07:36:33;;;;;;;1.70;1.60;;;;;;;;;;4952832;28;20047;-85
2023/05/30 07:39:00;;;;;;;1.58;1.48;;;;;;;;;;4953307;28;20053;-87
2023/05/30 07:41:28;;;;;;;1.45;1.45;;;;;;;;;;4955859;28;20041;-87
2023/05/30 07:43:55;;;;;;;1.73;1.45;;;;;;;;;;4952570;28;20074;-87
2023/05/30 07:46:23;;;;;;;1.48;1.40;;;;;;;;;;4955540;28;20521;-87
2023/05/30 07:48:52;;;;;;;1.50;1.40;;;;;;;;;;4955184;28;20058;-87
2023/05/30 07:51:22;;;;;;;1.90;1.40;;;;;;;;;;4951919;28;20051;-87
2023/05/30 07:53:49;;;;;;;1.50;1.40;;;;;;;;;;4954965;28;20123;-86
2023/05/30 07:56:22;;;;;;;1.65;1.55;;;;;;;;;;4953631;28;20098;-87
2023/05/30 07:58:52;;;;;;;1.55;1.45;;;;;;;;;;4944892;28;20040;-88
2023/05/30 08:01:27;;;;;;;1.40;1.30;;;;;;;;;;4970452;28;20084;-85
2023/05/30 08:03:54;;;;;;;1.50;1.40;;;;;;;;;;4977931;28;20076;-87
2023/05/30 08:06:22;;;;;;;1.73;1.63;;;;;;;;;;4951482;28;20070;-88
2023/05/30 08:08:49;;;;;;;1.70;1.60;;;;;;;;;;4954268;28;20066;-86
2023/05/30 08:11:17;;;;;;;1.58;1.48;;;;;;;;;;4950525;28;20050;-85
2023/05/30 08:13:44;;;;;;;1.73;1.55;;;;;;;;;;4943095;28;20047;-86
2023/05/30 08:16:12;;;;;;;1.60;1.50;;;;;;;;;;4951066;28;20071;-86
2023/05/30 08:18:42;;;;;;;2.85;1.45;;;;;;;;;;4950818;28;20438;-86
2023/05/30 08:21:11;;;;;;;2.15;1.10;;;;;;;;;;4939308;28;20051;-84
2023/05/30 08:23:39;;;;;;;1.50;1.40;;;;;;;;;;4959561;28;20047;-86
2023/05/30 08:26:10;;;;;;;1.20;1.20;;;;;;;;;;4958682;28;20039;-87
2023/05/30 08:28:40;;;;;;;3.42;1.33;;;;;;;;;;4954045;28;20055;-86
2023/05/30 08:31:08;;;;;;;1.58;1.30;;;;;;;;;;4951332;28;20055;-88
2023/05/30 08:33:38;;;;;;;1.48;1.38;;;;;;;;;;4950285;28;20540;-88
2023/05/30 08:36:08;;;;;;;1.48;1.38;;;;;;;;;;4949440;28;20039;-87
2023/05/30 08:38:36;;;;;;;1.50;1.40;;;;;;;;;;4945535;28;20122;-84
2023/05/30 08:41:03;;;;;;;1.98;1.60;;;;;;;;;;4946254;28;20051;-85
2023/05/30 08:43:30;;;;;;;1.10;1.10;;;;;;;;;;4950117;28;20056;-87
2023/05/30 08:45:58;;;;;;;1.40;1.30;;;;;;;;;;4949429;28;20046;-85
2023/05/30 08:48:31;;;;;;;1.30;1.20;;;;;;;;;;4951570;28;20047;-86
2023/05/30 08:50:59;;;;;;;1.67;1.58;;;;;;;;;;4945534;28;20055;-87
2023/05/30 08:53:33;;;;;;;1.52;1.40;;;;;;;;;;4950475;28;20055;-86
2023/05/30 08:56:08;;;;;;;1.80;1.60;;;;;;;;;;4947525;28;20458;-88
2023/05/30 08:58:44;;;;;;;1.10;1.10;;;;;;;;;;4944470;28;20068;-87
2023/05/30 09:01:12;;;;;;;1.60;1.50;;;;;;;;;;4949559;28;20035;-86
2023/05/30 09:03:48;;;;;;;2.25;1.30;;;;;;;;;;4953586;28;20070;-86
2023/05/30 09:06:16;;;;;;;1.40;1.30;;;;;;;;;;4949718;28;20488;-87
2023/05/30 09:08:45;;;;;;;1.23;1.13;;;;;;;;;;4948155;28;20053;-86
2023/05/30 09:11:16;;;;;;;1.35;1.30;;;;;;;;;;4946420;28;20058;-88
2023/05/30 09:13:44;;;;;;;1.10;1.10;;;;;;;;;;4950951;28;20486;-86
2023/05/30 09:16:12;;;;;;;1.13;1.10;;;;;;;;;;4950746;28;21144;-87
2023/05/30 09:18:40;;;;;;;1.52;1.27;;;;;;;;;;4948930;28;20509;-85
2023/05/30 09:21:14;;;;;;;1.40;1.30;;;;;;;;;;4953365;28;20044;-86
2023/05/30 09:23:42;;;;;;;1.35;1.30;;;;;;;;;;4950723;28;21049;-85
2023/05/30 09:26:14;;;;;;;1.85;1.75;;;;;;;;;;4947503;28;20125;-84
2023/05/30 09:28:45;;;;;;;1.45;1.35;;;;;;;;;;4950883;28;20051;-84
2023/05/30 09:31:13;;;;;;;1.23;1.13;;;;;;;;;;4934513;28;20062;-84
2023/05/30 09:33:44;;;;;;;1.52;1.42;;;;;;;;;;4943812;28;20055;-85
2023/05/30 09:36:12;;;;;;;;;;;;;;;;;;4942149;28;20039;-85
2023/05/30 09:38:51;;;;;;;2.30;1.90;;;;;;;;;;4944476;28;20025;-84
2023/05/30 09:41:19;;;;;;;1.70;1.60;;;;;;;;;;4948352;28;20047;-86
2023/05/30 09:43:52;;;;;;;1.77;1.30;;;;;;;;;;4944036;28;20047;-84
2023/05/30 09:46:21;;;;;;;1.67;1.58;;;;;;;;;;4945028;28;20130;-89
2023/05/30 09:48:51;;;;;;;2.33;2.13;;;;;;;;;;4945223;28;20054;-89
2023/05/30 09:51:21;;;;;;;2.15;1.38;;;;;;;;;;4946945;28;20062;-84
2023/05/30 09:54:02;;;;;;;1.30;1.20;;;;;;;;;;4947067;28;20437;-86
2023/05/30 09:56:41;;;;;;;1.60;1.50;;;;;;;;;;4943274;28;20047;-85
2023/05/30 09:59:09;;;;;;;1.50;1.40;;;;;;;;;;4944369;28;20126;-86
2023/05/30 10:01:37;;;;;;;2.03;1.80;;;;;;;;;;4944927;28;20062;-86
2023/05/30 10:04:21;;;;;;;1.40;1.30;;;;;;;;;;4940831;28;20652;-85
2023/05/30 10:06:51;;;;;;;1.70;1.60;;;;;;;;;;4944744;28;20517;-87
2023/05/30 10:09:22;;;;;;;1.50;1.40;;;;;;;;;;4943700;28;20655;-85
2023/05/30 10:12:03;;;;;;;1.35;1.35;;;;;;;;;;4943483;28;20053;-86
2023/05/30 10:14:34;;;;;;;2.85;1.40;;;;;;;;;;4939550;28;20189;-86
2023/05/30 10:17:05;;;;;;;1.27;1.27;;;;;;;;;;4941493;28;20058;-87
2023/05/30 10:19:40;;;;;;;1.53;1.43;;;;;;;;;;4940103;28;20070;-85
2023/05/30 10:22:08;;;;;;;2.33;1.50;;;;;;;;;;4946519;28;20043;-86
2023/05/30 10:24:36;;;;;;;1.60;1.50;;;;;;;;;;4948212;28;20126;-85
2023/05/30 10:27:04;;;;;;;1.55;1.45;;;;;;;;;;4946361;28;20047;-87
2023/05/30 10:29:47;;;;;;;1.50;1.40;;;;;;;;;;4946820;28;20054;-86
2023/05/30 10:32:21;;;;;;;1.42;1.42;;;;;;;;;;4939431;28;20067;-87
2023/05/30 10:34:56;;;;;;;2.90;1.63;;;;;;;;;;4941973;28;20109;-88
2023/05/30 10:37:24;;;;;;;1.60;1.50;;;;;;;;;;4945109;28;20039;-84
2023/05/30 10:40:11;;;;;;;2.13;1.67;;;;;;;;;;4940072;28;20154;-83
2023/05/30 10:42:45;;;;;;;2.75;1.70;;;;;;;;;;4925709;29;20062;-82
2023/05/30 10:45:16;;;;;;;1.70;1.60;;;;;;;;;;4964351;28;20115;-82
2023/05/30 10:47:46;;;;;;;1.58;1.48;;;;;;;;;;4971293;28;20055;-83
2023/05/30 10:50:22;;;;;;;1.70;1.60;;;;;;;;;;4945997;28;20058;-86
2023/05/30 10:52:53;;;;;;;2.50;1.77;;;;;;;;;;4947502;28;20058;-88
2023/05/30 10:55:33;;;;;;;1.70;1.60;;;;;;;;;;4944442;28;20072;-88
2023/05/30 10:58:01;;;;;;;1.20;1.20;;;;;;;;;;4943137;28;20533;-87
2023/05/30 11:00:30;;;;;;;1.65;1.23;;;;;;;;;;4947942;28;20223;-87
2023/05/30 11:02:57;;;;;;;1.50;1.40;;;;;;;;;;4952314;28;20122;-88
2023/05/30 11:05:32;;;;;;;1.50;1.40;;;;;;;;;;4942859;28;20043;-86
2023/05/30 11:08:01;;;;;;;4.03;1.83;;;;;;;;;;4949094;28;20429;-87
2023/05/30 11:10:30;;;;;;;1.23;1.23;;;;;;;;;;4951606;28;20591;-87
2023/05/30 11:13:08;;;;;;;1.40;1.30;;;;;;;;;;4954628;28;20146;-87
2023/05/30 11:15:36;;;;;;;1.52;1.42;;;;;;;;;;4949116;28;20063;-88
2023/05/30 11:18:17;;;;;;;1.30;1.20;;;;;;;;;;4945871;28;20394;-86
2023/05/30 11:20:54;;;;;;;1.30;1.20;;;;;;;;;;4949235;28;20043;-87
2023/05/30 11:23:27;;;;;;;2.08;1.80;;;;;;;;;;4939921;28;20417;-89
2023/05/30 11:25:56;;;;;;;1.30;1.30;;;;;;;;;;4953444;28;20106;-88
2023/05/30 11:28:34;;;;;;;1.10;1.10;;;;;;;;;;4946163;28;20739;-87
2023/05/30 11:31:19;;;;;;;1.40;1.30;;;;;;;;;;4952669;28;20135;-86
2023/05/30 11:33:48;;;;;;;1.83;1.73;;;;;;;;;;4950542;28;20047;-87
2023/05/30 11:36:16;;;;;;;1.60;1.50;;;;;;;;;;4948060;28;20074;-87
2023/05/30 11:38:46;;;;;;;1.35;1.30;;;;;;;;;;4949612;28;20438;-88
2023/05/30 11:41:15;;;;;;;1.55;1.45;;;;;;;;;;4947403;28;20057;-88
2023/05/30 11:43:44;;;;;;;1.60;1.50;;;;;;;;;;4948859;28;20051;-89
2023/05/30 11:46:13;;;;;;;3.45;1.55;;;;;;;;;;4954545;28;20042;-88
2023/05/30 11:48:41;;;;;;;1.50;1.40;;;;;;;;;;4944970;28;20134;-89
2023/05/30 11:51:08;;;;;;;1.75;1.63;;;;;;;;;;4954396;28;20095;-88
2023/05/30 11:53:36;;;;;;;1.02;1.02;;;;;;;;;;4958504;28;20049;-88
2023/05/30 11:56:04;;;;;;;1.27;1.27;;;;;;;;;;4962479;28;20043;-87
2023/05/30 11:58:32;;;;;;;1.30;1.30;;;;;;;;;;4944080;28;20126;-89
2023/05/30 12:01:01;;;;;;;1.60;1.50;;;;;;;;;;4952644;28;20533;-88
2023/05/30 12:03:31;;;;;;;1.40;1.30;;;;;;;;;;4950957;28;20047;-87
2023/05/30 12:06:11;;;;;;;3.60;1.48;;;;;;;;;;4952771;28;20054;-88
2023/05/30 12:08:48;;;;;;;1.65;1.55;;;;;;;;;;4951108;28;20059;-88
2023/05/30 12:11:16;;;;;;;1.70;1.60;;;;;;;;;;4952157;28;20592;-88
2023/05/30 12:13:55;;;;;;;1.60;1.50;;;;;;;;;;4952346;28;20202;-87
2023/05/30 12:16:23;;;;;;;2.05;1.48;;;;;;;;;;4954848;28;20050;-88
2023/05/30 12:18:50;;;;;;;1.83;1.70;;;;;;;;;;4966420;28;20768;-88
2023/05/30 12:21:19;;;;;;;1.60;1.50;;;;;;;;;;4952232;28;20051;-86
2023/05/30 12:23:47;;;;;;;1.60;1.50;;;;;;;;;;4952899;28;20051;-88
2023/05/30 12:26:17;;;;;;;1.63;1.52;;;;;;;;;;4936586;28;20051;-87
2023/05/30 12:28:49;;;;;;;3.55;1.80;;;;;;;;;;4952154;28;20043;-86
2023/05/30 12:31:26;;;;;;;1.65;1.55;;;;;;;;;;4954255;28;20051;-88
2023/05/30 12:34:01;;;;;;;2.28;2.08;;;;;;;;;;4952041;28;20509;-91
2023/05/30 12:36:32;;;;;;;2.40;2.20;;;;;;;;;;4955682;28;20055;-91
2023/05/30 12:39:19;;;;;;;2.50;2.10;;;;;;;;;;4954040;28;20047;-91
2023/05/30 12:42:26;;;;;;;1.80;1.70;;;;;;;;;;4951972;28;20162;-88
2023/05/30 12:45:21;;;;;;;1.80;1.70;;;;;;;;;;4950319;28;20050;-90
2023/05/30 12:47:55;;;;;;;1.30;1.30;;;;;;;;;;4965347;23;20058;-89
2023/05/30 12:50:35;;;;;;;1.25;1.25;;;;;;;;;;4953393;28;20048;-88
2023/05/30 12:53:06;;;;;;;1.10;1.10;;;;;;;;;;4949950;28;20271;-88
2023/05/30 12:55:35;;;;;;;1.25;1.15;;;;;;;;;;4955472;28;20676;-89
2023/05/30 12:58:12;;;;;;;1.55;1.45;;;;;;;;;;4967950;28;20043;-92
2023/05/30 13:00:54;;;;;;;1.58;1.48;;;;;;;;;;4970547;28;20126;-90
2023/05/30 13:03:28;;;;;;;1.50;1.40;;;;;;;;;;4970029;28;20074;-89
2023/05/30 13:05:56;;;;;;;1.83;1.50;;;;;;;;;;4970675;28;20050;-88
2023/05/30 13:08:24;;;;;;;1.63;1.52;;;;;;;;;;4969098;28;20051;-88
2023/05/30 13:10:51;;;;;;;1.30;1.30;;;;;;;;;;4964167;28;20579;-88
2023/05/30 13:13:19;;;;;;;1.55;1.45;;;;;;;;;;4970974;28;20050;-88
2023/05/30 13:15:50;;;;;;;1.40;1.30;;;;;;;;;;4963107;28;20054;-88
2023/05/30 13:18:17;;;;;;;1.30;1.30;;;;;;;;;;4974113;28;20102;-88
2023/05/30 13:20:46;;;;;;;1.40;1.30;;;;;;;;;;4956914;28;20101;-87
2023/05/30 13:23:14;;;;;;;1.73;1.63;;;;;;;;;;4970609;28;20436;-87
2023/05/30 13:25:41;;;;;;;1.65;1.55;;;;;;;;;;4972565;28;20051;-87
2023/05/30 13:28:09;;;;;;;1.40;1.40;;;;;;;;;;4972895;28;20054;-87
2023/05/30 13:30:39;;;;;;;1.70;1.60;;;;;;;;;;4961166;28;20074;-88
2023/05/30 13:33:06;;;;;;;1.60;1.50;;;;;;;;;;4989759;28;20085;-87
2023/05/30 13:35:35;;;;;;;1.65;1.55;;;;;;;;;;4977713;28;20054;-88
2023/05/30 13:38:28;;;;;;;1.73;1.63;;;;;;;;;;4971212;28;20047;-90
2023/05/30 13:40:56;;;;;;;1.60;1.50;;;;;;;;;;4984830;28;20070;-88
2023/05/30 13:43:24;;;;;;;2.20;2.10;;;;;;;;;;4987602;28;20043;-89
2023/05/30 13:45:52;;;;;;;1.98;1.88;;;;;;;;;;4982944;28;20059;-89
2023/05/30 13:48:21;;;;;;;1.63;1.52;;;;;;;;;;4982967;28;20074;-88
2023/05/30 13:50:50;;;;;;;1.48;1.38;;;;;;;;;;4986946;28;20051;-88
2023/05/30 13:53:19;;;;;;;1.70;1.60;;;;;;;;;;4994295;28;20085;-89
2023/05/30 13:55:57;;;;;;;1.30;1.30;;;;;;;;;;4986678;28;20050;-89
2023/05/30 13:58:24;;;;;;;1.60;1.50;;;;;;;;;;4986442;28;20062;-88
2023/05/30 14:01:02;;;;;;;1.40;1.30;;;;;;;;;;4986765;28;20058;-89
2023/05/30 14:03:32;;;;;;;1.92;1.83;;;;;;;;;;4981451;28;20063;-90
2023/05/30 14:06:04;;;;;;;1.83;1.73;;;;;;;;;;4986040;28;20043;-90
2023/05/30 14:08:37;;;;;;;1.48;1.38;;;;;;;;;;4985137;28;20046;-89
2023/05/30 14:11:13;;;;;;;2.40;1.80;;;;;;;;;;4988499;28;20073;-90
2023/05/30 14:13:41;;;;;;;1.95;1.65;;;;;;;;;;4971827;28;20047;-89
2023/05/30 14:16:09;;;;;;;1.60;1.50;;;;;;;;;;4987555;28;20051;-88
2023/05/30 14:18:44;;;;;;;1.23;1.23;;;;;;;;;;4987646;28;20057;-90
2023/05/30 14:21:19;;;;;;;1.35;1.25;;;;;;;;;;4988508;28;20264;-89
2023/05/30 14:23:47;;;;;;;1.38;1.27;;;;;;;;;;4984879;28;20050;-89
2023/05/30 14:26:37;;;;;;;1.52;1.42;;;;;;;;;;4963228;28;20047;-91
2023/05/30 14:29:22;;;;;;;1.30;1.30;;;;;;;;;;4966710;28;20501;-91
2023/05/30 14:31:53;;;;;;;1.50;1.40;;;;;;;;;;4968889;28;20087;-89
2023/05/30 14:34:24;;;;;;;1.40;1.30;;;;;;;;;;4969538;28;20039;-88
2023/05/30 14:36:57;;;;;;;1.40;1.40;;;;;;;;;;4955720;28;20076;-89
2023/05/30 14:39:25;;;;;;;1.15;1.15;;;;;;;;;;4970414;28;20055;-88
2023/05/30 14:41:52;;;;;;;1.20;1.20;;;;;;;;;;4955547;28;20054;-89
2023/05/30 14:44:20;;;;;;;1.50;1.40;;;;;;;;;;4964633;28;20051;-88
2023/05/30 14:46:47;;;;;;;1.50;1.50;;;;;;;;;;4957680;28;20122;-88
2023/05/30 14:49:15;;;;;;;1.50;1.40;;;;;;;;;;4952381;28;20620;-89
2023/05/30 14:51:42;;;;;;;1.75;1.30;;;;;;;;;;4964858;28;20115;-88
2023/05/30 14:54:20;;;;;;;1.65;1.55;;;;;;;;;;4966030;29;20071;-90
2023/05/30 14:57:17;;;;;;;1.48;1.40;;;;;;;;;;4977057;28;20042;-93
2023/05/30 14:59:59;;;;;;;1.27;1.17;;;;;;;;;;4970411;28;20031;-90
2023/05/30 15:02:50;;;;;;;1.73;1.58;;;;;;;;;;4970462;28;20114;-90